createdAt,value
2018-06-21T00:00:24.250Z,23.97
2018-06-21T00:05:27.537Z,24.10
2018-06-21T00:10:30.737Z,22.43
2018-06-21T00:15:33.964Z,17.90
2018-06-21T00:20:37.657Z,19.33
2018-06-21T00:25:41.237Z,15.60
2018-06-21T00:30:44.672Z,15.33
2018-06-21T00:35:47.852Z,11.07
2018-06-21T00:40:51.149Z,10.70
2018-06-21T00:45:54.465Z,9.67
2018-06-21T00:50:57.589Z,10.07
2018-06-21T00:56:12.773Z,7.83
2018-06-21T01:01:17.032Z,9.70
2018-06-21T01:06:20.235Z,8.03
2018-06-21T01:11:23.343Z,7.07
2018-06-21T01:16:26.733Z,7.10
2018-06-21T01:21:29.904Z,5.80
2018-06-21T01:26:33.858Z,5.73
2018-06-21T01:31:37.573Z,4.73
2018-06-21T01:36:40.728Z,4.70
2018-06-21T01:41:43.833Z,5.03
2018-06-21T01:46:47.175Z,4.37
2018-06-21T01:51:50.252Z,3.70
2018-06-21T01:56:53.383Z,3.93
2018-06-21T02:01:56.911Z,3.27
2018-06-21T02:06:59.828Z,3.37
2018-06-21T02:12:02.879Z,3.27
2018-06-21T02:17:06.011Z,2.57
2018-06-21T02:22:09.105Z,3.20
2018-06-21T02:27:12.176Z,2.60
2018-06-21T02:32:15.838Z,2.43
2018-06-21T02:37:18.763Z,3.00
2018-06-21T02:42:22.634Z,2.67
2018-06-21T02:47:26.157Z,2.40
2018-06-21T02:52:29.312Z,3.33
2018-06-21T02:57:32.635Z,2.50
2018-06-21T03:02:35.983Z,2.67
2018-06-21T03:07:39.067Z,3.37
2018-06-21T03:12:42.211Z,2.60
2018-06-21T03:17:45.581Z,2.83
2018-06-21T03:22:48.709Z,2.30
2018-06-21T03:27:51.749Z,2.23
2018-06-21T03:32:54.890Z,2.50
2018-06-21T03:37:58.966Z,2.20
2018-06-21T03:43:02.024Z,3.83
2018-06-21T03:48:05.293Z,2.43
2018-06-21T03:53:08.432Z,2.77
2018-06-21T03:58:11.632Z,2.50
2018-06-21T04:03:15.346Z,2.20
2018-06-21T04:08:18.650Z,3.07
2018-06-21T04:13:21.634Z,2.47
2018-06-21T04:18:41.208Z,2.30
2018-06-21T04:23:44.446Z,2.20
2018-06-21T04:28:47.588Z,3.40
2018-06-21T04:33:50.474Z,3.13
2018-06-21T04:38:53.697Z,3.10
2018-06-21T04:43:57.055Z,2.73
2018-06-21T04:49:00.467Z,2.30
2018-06-21T04:54:03.682Z,2.70
2018-06-21T04:59:06.701Z,2.93
2018-06-21T05:04:09.853Z,2.23
2018-06-21T05:09:12.853Z,2.30
2018-06-21T05:14:15.732Z,2.30
2018-06-21T05:19:18.915Z,3.57
2018-06-21T05:24:22.085Z,2.80
2018-06-21T05:29:24.992Z,2.63
2018-06-21T05:34:27.905Z,2.57
2018-06-21T05:39:30.791Z,2.30
2018-06-21T05:44:38.307Z,2.63
2018-06-21T05:49:41.964Z,2.40
2018-06-21T05:54:45.186Z,2.80
2018-06-21T05:59:48.075Z,3.00
2018-06-21T06:04:50.974Z,2.47
2018-06-21T06:09:53.860Z,3.00
2018-06-21T06:14:56.750Z,3.50
2018-06-21T06:20:00.484Z,3.73
2018-06-21T06:25:03.474Z,4.20
2018-06-21T06:30:06.988Z,4.20
2018-06-21T06:35:10.352Z,3.10
2018-06-21T06:40:13.268Z,2.50
2018-06-21T06:45:21.169Z,2.23
2018-06-21T06:50:24.938Z,2.93
2018-06-21T06:55:27.783Z,2.90
2018-06-21T07:00:30.993Z,2.50
2018-06-21T07:05:33.896Z,2.70
2018-06-21T07:10:36.820Z,2.40
2018-06-21T07:15:39.687Z,3.03
2018-06-21T07:20:42.760Z,1.70
2018-06-21T07:25:45.674Z,2.10
2018-06-21T07:30:48.829Z,2.20
2018-06-21T07:35:51.962Z,2.40
2018-06-21T07:40:54.871Z,2.23
2018-06-21T07:45:57.829Z,3.53
2018-06-21T07:51:07.534Z,2.43
2018-06-21T07:56:11.007Z,2.30
2018-06-21T08:01:13.901Z,2.40
2018-06-21T08:06:16.815Z,3.00
2018-06-21T08:11:19.661Z,2.37
2018-06-21T08:16:22.639Z,2.33
2018-06-21T08:21:25.787Z,3.23
2018-06-21T08:26:28.662Z,2.50
2018-06-21T08:31:31.832Z,3.57
2018-06-21T08:36:35.031Z,2.80
2018-06-21T08:41:38.087Z,3.33
2018-06-21T08:46:41.216Z,3.70
2018-06-21T08:51:44.276Z,4.47
2018-06-21T08:56:50.599Z,2.47
2018-06-21T09:01:53.674Z,4.40
2018-06-21T09:06:57.792Z,3.03
2018-06-21T09:12:00.695Z,3.90
2018-06-21T09:17:03.930Z,4.37
2018-06-21T09:22:07.055Z,5.10
2018-06-21T09:27:10.021Z,3.63
2018-06-21T09:32:12.934Z,2.90
2018-06-21T09:37:20.372Z,2.60
2018-06-21T09:42:28.856Z,2.57
2018-06-21T09:47:37.421Z,3.13
2018-06-21T09:52:40.913Z,2.23
2018-06-21T09:57:44.110Z,2.33
2018-06-21T10:02:47.070Z,2.33
2018-06-21T10:07:50.156Z,2.77
2018-06-21T10:12:53.101Z,2.47
2018-06-21T10:17:58.055Z,1.83
2018-06-21T10:23:02.581Z,2.90
2018-06-21T10:28:05.409Z,2.97
2018-06-21T10:33:08.233Z,3.40
2018-06-21T10:38:11.343Z,4.03
2018-06-21T10:43:14.147Z,4.40
2018-06-21T10:48:17.437Z,4.30
2018-06-21T10:53:20.505Z,5.30
2018-06-21T10:58:23.969Z,6.33
2018-06-21T11:03:27.189Z,5.40
2018-06-21T11:08:30.248Z,6.17
2018-06-21T11:13:33.150Z,6.30
2018-06-21T11:18:36.029Z,7.80
2018-06-21T11:23:38.972Z,5.80
2018-06-21T11:28:41.882Z,6.40
2018-06-21T11:33:45.596Z,6.13
2018-06-21T11:38:48.533Z,3.53
2018-06-21T11:43:51.432Z,5.10
2018-06-21T11:48:54.798Z,5.20
2018-06-21T11:53:57.831Z,5.60
2018-06-21T11:59:00.787Z,4.47
2018-06-21T12:04:04.111Z,4.60
2018-06-21T12:09:08.862Z,3.30
2018-06-21T12:14:11.779Z,4.60
2018-06-21T12:19:14.870Z,4.40
2018-06-21T12:24:17.941Z,5.10
2018-06-21T12:29:20.868Z,6.00
2018-06-21T12:34:24.098Z,7.40
2018-06-21T12:39:27.081Z,6.10
2018-06-21T12:44:30.177Z,4.30
2018-06-21T12:49:33.380Z,4.70
2018-06-21T12:54:36.512Z,3.63
2018-06-21T12:59:40.614Z,4.93
2018-06-21T13:04:43.661Z,4.37
2018-06-21T13:09:57.709Z,4.70
2018-06-21T13:15:00.781Z,3.83
2018-06-21T13:20:04.739Z,3.70
2018-06-21T13:25:07.691Z,2.87
2018-06-21T13:30:10.642Z,5.13
2018-06-21T13:35:14.664Z,3.40
2018-06-21T13:40:17.589Z,2.57
2018-06-21T13:45:20.468Z,2.50
2018-06-21T13:50:23.648Z,3.43
2018-06-21T13:55:27.007Z,3.40
2018-06-21T14:00:29.877Z,2.87
2018-06-21T14:05:33.106Z,2.30
2018-06-21T14:10:36.180Z,2.40
2018-06-21T14:15:39.097Z,2.90
2018-06-21T14:20:42.172Z,1.70
2018-06-21T14:25:46.444Z,2.00
2018-06-21T14:30:49.505Z,2.43
2018-06-21T14:35:52.733Z,2.47
2018-06-21T14:40:55.812Z,2.20
2018-06-21T14:45:58.924Z,2.87
2018-06-21T14:51:02.591Z,2.20
2018-06-21T14:56:05.693Z,2.73
2018-06-21T15:01:08.554Z,3.17
2018-06-21T15:06:11.716Z,3.20
2018-06-21T15:11:18.521Z,2.30
2018-06-21T15:16:22.780Z,3.33
2018-06-21T15:21:25.680Z,2.80
2018-06-21T15:26:28.699Z,2.70
2018-06-21T15:31:32.446Z,2.70
2018-06-21T15:36:35.437Z,2.43
2018-06-21T15:41:38.829Z,2.13
2018-06-21T15:46:42.242Z,2.43
2018-06-21T15:51:45.279Z,2.30
2018-06-21T15:56:48.610Z,2.50
2018-06-21T16:01:51.658Z,1.93
2018-06-21T16:06:54.721Z,2.83
2018-06-21T16:11:58.818Z,2.10
2018-06-21T16:17:03.826Z,3.00
2018-06-21T16:22:07.076Z,2.83
2018-06-21T16:27:10.478Z,2.47
2018-06-21T16:32:16.532Z,2.83
2018-06-21T16:37:19.728Z,3.40
2018-06-21T16:42:22.944Z,3.43
2018-06-21T16:47:25.820Z,3.60
2018-06-21T16:52:32.860Z,3.07
2018-06-21T16:57:36.081Z,4.03
2018-06-21T17:02:38.997Z,3.40
2018-06-21T17:07:42.744Z,4.30
2018-06-21T17:12:46.039Z,2.93
2018-06-21T17:17:49.180Z,2.20
2018-06-21T17:22:52.070Z,2.83
2018-06-21T17:27:55.591Z,2.83
2018-06-21T17:33:02.771Z,2.70
2018-06-21T17:38:05.856Z,2.73
2018-06-21T17:43:08.814Z,2.60
2018-06-21T17:48:12.638Z,2.80
2018-06-21T17:53:15.701Z,2.90
2018-06-21T17:58:18.953Z,2.73
2018-06-21T18:03:21.844Z,3.60
2018-06-21T18:08:24.795Z,4.60
2018-06-21T18:13:32.128Z,3.33
2018-06-21T18:18:35.880Z,2.70
2018-06-21T18:23:39.173Z,4.13
2018-06-21T18:28:42.617Z,3.00
2018-06-21T18:33:45.759Z,4.97
2018-06-21T18:38:49.143Z,4.30
2018-06-21T18:44:09.414Z,4.50
2018-06-21T18:49:19.859Z,3.40
2018-06-21T18:54:28.708Z,4.90
2018-06-21T18:59:34.133Z,6.10
2018-06-21T19:04:39.889Z,3.53
2018-06-21T19:09:48.691Z,3.13
2018-06-21T19:14:59.651Z,4.47
2018-06-21T19:20:05.225Z,3.60
2018-06-21T19:25:09.753Z,3.43
2018-06-21T19:30:14.556Z,4.47
2018-06-21T19:35:17.953Z,4.20
2018-06-21T19:40:21.198Z,5.17
2018-06-21T19:45:25.004Z,7.17
2018-06-21T19:50:28.324Z,5.63
2018-06-21T19:55:31.734Z,4.87
2018-06-21T20:00:35.192Z,5.77
2018-06-21T20:05:38.369Z,5.03
2018-06-21T20:10:42.563Z,8.40
2018-06-21T20:15:50.398Z,7.30
2018-06-21T20:20:53.492Z,10.40
2018-06-21T20:25:56.494Z,7.00
2018-06-21T20:30:59.752Z,4.80
2018-06-21T20:36:02.743Z,3.17
2018-06-21T20:41:06.031Z,4.97
2018-06-21T20:46:08.948Z,3.43
2018-06-21T20:51:11.980Z,4.27
2018-06-21T20:56:15.404Z,3.33
2018-06-21T21:01:18.852Z,3.70
2018-06-21T21:06:21.785Z,4.70
2018-06-21T21:11:24.716Z,3.90
2018-06-21T21:16:28.331Z,3.83
2018-06-21T21:21:31.442Z,5.23
2018-06-21T21:26:34.377Z,4.30
2018-06-21T21:31:37.569Z,4.43
2018-06-21T21:36:40.407Z,5.70
2018-06-21T21:41:43.302Z,4.83
2018-06-21T21:46:46.820Z,4.27
2018-06-21T21:51:50.136Z,5.67
2018-06-21T21:56:54.198Z,4.57
2018-06-21T22:02:02.021Z,4.87
2018-06-21T22:07:05.368Z,4.03
2018-06-21T22:12:10.693Z,3.90
2018-06-21T22:17:14.643Z,3.10
2018-06-21T22:22:17.689Z,4.30
2018-06-21T22:27:20.545Z,4.80
2018-06-21T22:32:23.737Z,4.20
2018-06-21T22:37:26.863Z,4.20
2018-06-21T22:42:30.197Z,5.00
2018-06-21T22:47:36.636Z,4.80
2018-06-21T22:52:40.516Z,4.43
2018-06-21T22:57:43.461Z,3.30
2018-06-21T23:02:54.495Z,4.30
2018-06-21T23:07:57.555Z,4.93
2018-06-21T23:13:00.997Z,4.43
2018-06-21T23:18:05.357Z,2.97
2018-06-21T23:23:08.977Z,2.57
2018-06-21T23:28:12.239Z,3.93
2018-06-21T23:33:16.198Z,4.60
2018-06-21T23:38:19.350Z,3.50
2018-06-21T23:43:22.585Z,3.00
2018-06-21T23:48:26.001Z,3.37
2018-06-21T23:53:29.618Z,3.83
2018-06-21T23:58:33.068Z,3.80
